createdAt,value
2024-03-12T00:01:21.260Z,97707.41
2024-03-12T00:03:48.057Z,97709.19
2024-03-12T00:06:14.684Z,97709.34
2024-03-12T00:08:41.601Z,97709.34
2024-03-12T00:11:09.122Z,97717.72
2024-03-12T00:13:36.031Z,97724.41
2024-03-12T00:16:03.068Z,97720.19
2024-03-12T00:18:29.726Z,97724.34
2024-03-12T00:20:56.224Z,97723.50
2024-03-12T00:23:26.691Z,97719.25
2024-03-12T00:25:53.244Z,97722.59
2024-03-12T00:28:19.716Z,97735.38
2024-03-12T00:30:46.238Z,97736.25
2024-03-12T00:33:13.034Z,97734.59
2024-03-12T00:35:44.704Z,97735.47
2024-03-12T00:38:12.026Z,97744.72
2024-03-12T00:40:39.941Z,97738.81
2024-03-12T00:43:08.200Z,97741.41
2024-03-12T00:45:39.311Z,97733.81
2024-03-12T00:48:08.192Z,97741.44
2024-03-12T00:50:34.963Z,97734.59
2024-03-12T00:53:03.398Z,97746.50
2024-03-12T00:55:31.077Z,97746.63
2024-03-12T00:58:01.778Z,97754.34
2024-03-12T01:00:30.426Z,97756.22
2024-03-12T01:03:00.918Z,97760.47
2024-03-12T01:05:31.832Z,97760.47
2024-03-12T01:08:02.602Z,97757.00
2024-03-12T01:10:30.960Z,97758.63
2024-03-12T01:13:00.034Z,97762.09
2024-03-12T01:15:26.718Z,97762.13
2024-03-12T01:18:04.583Z,97765.53
2024-03-12T01:20:32.707Z,97767.28
2024-03-12T01:22:59.168Z,97769.84
2024-03-12T01:25:30.552Z,97764.88
2024-03-12T01:27:57.641Z,97776.66
2024-03-12T01:30:28.443Z,97779.22
2024-03-12T01:32:56.040Z,97773.25
2024-03-12T01:35:24.628Z,97785.97
2024-03-12T01:37:52.827Z,97776.69
2024-03-12T01:40:21.969Z,97778.38
2024-03-12T01:42:52.747Z,97780.06
2024-03-12T01:45:23.536Z,97773.38
2024-03-12T01:47:51.979Z,97773.38
2024-03-12T01:50:19.516Z,97768.31
2024-03-12T01:52:47.408Z,97768.31
2024-03-12T01:55:19.582Z,97771.66
2024-03-12T01:57:46.981Z,97770.78
2024-03-12T02:00:14.562Z,97769.16
2024-03-12T02:02:46.072Z,97779.31
2024-03-12T02:05:14.014Z,97773.41
2024-03-12T02:07:42.475Z,97774.31
2024-03-12T02:10:09.583Z,97782.88
2024-03-12T02:12:36.601Z,97784.53
2024-03-12T02:15:04.713Z,97778.63
2024-03-12T02:17:31.337Z,97782.84
2024-03-12T02:19:58.384Z,97785.38
2024-03-12T02:22:25.281Z,97782.88
2024-03-12T02:24:52.570Z,97781.16
2024-03-12T02:27:19.080Z,97789.66
2024-03-12T02:29:45.814Z,97791.41
2024-03-12T02:32:12.408Z,97787.16
2024-03-12T02:34:38.935Z,97797.38
2024-03-12T02:37:06.978Z,97796.56
2024-03-12T02:39:33.605Z,97804.16
2024-03-12T02:42:00.205Z,97804.19
2024-03-12T02:44:26.738Z,97806.72
2024-03-12T02:46:55.632Z,97811.78
2024-03-12T02:49:24.224Z,97815.22
2024-03-12T02:51:51.352Z,97816.91
2024-03-12T02:54:19.468Z,97818.63
2024-03-12T02:56:45.922Z,97819.44
2024-03-12T02:59:13.345Z,97827.09
2024-03-12T03:01:40.483Z,97827.94
2024-03-12T03:04:07.108Z,97833.03
2024-03-12T03:06:33.619Z,97837.28
2024-03-12T03:09:00.161Z,97837.25
2024-03-12T03:11:26.869Z,97838.09
2024-03-12T03:13:53.474Z,97835.56
2024-03-12T03:16:23.613Z,97838.94
2024-03-12T03:18:50.293Z,97843.19
2024-03-12T03:21:17.115Z,97848.25
2024-03-12T03:23:43.670Z,97848.25
2024-03-12T03:26:10.255Z,97849.06
2024-03-12T03:28:37.087Z,97853.31
2024-03-12T03:31:03.805Z,97852.47
2024-03-12T03:33:30.487Z,97855.84
2024-03-12T03:35:56.947Z,97859.22
2024-03-12T03:38:24.422Z,97855.84
2024-03-12T03:40:51.006Z,97857.56
2024-03-12T03:43:17.500Z,97867.72
2024-03-12T03:45:44.135Z,97868.56
2024-03-12T03:48:10.727Z,97871.97
2024-03-12T03:50:37.677Z,97874.53
2024-03-12T03:53:04.340Z,97879.59
2024-03-12T03:55:32.042Z,97879.59
2024-03-12T03:57:58.524Z,97877.03
2024-03-12T04:00:29.660Z,97884.69
2024-03-12T04:02:57.892Z,97890.59
2024-03-12T04:05:24.489Z,97881.28
2024-03-12T04:07:51.124Z,97888.03
2024-03-12T04:10:17.766Z,97891.44
2024-03-12T04:12:48.352Z,97881.28
2024-03-12T04:15:15.849Z,97890.63
2024-03-12T04:17:44.845Z,97894.00
2024-03-12T04:20:12.273Z,97899.91
2024-03-12T04:22:39.760Z,97903.28
2024-03-12T04:25:08.437Z,97908.38
2024-03-12T04:27:37.905Z,97906.69
2024-03-12T04:30:12.010Z,97906.66
2024-03-12T04:32:39.643Z,97909.16
2024-03-12T04:35:06.921Z,97912.53
2024-03-12T04:37:33.862Z,97913.41
2024-03-12T04:40:01.131Z,97923.56
2024-03-12T04:42:30.562Z,97925.28
2024-03-12T04:44:59.620Z,97920.22
2024-03-12T04:47:26.080Z,97919.38
2024-03-12T04:49:53.958Z,97925.31
2024-03-12T04:52:20.417Z,97927.88
2024-03-12T04:54:47.292Z,97927.00
2024-03-12T04:57:13.764Z,97932.06
2024-03-12T04:59:40.257Z,97931.25
2024-03-12T05:02:06.812Z,97938.81
2024-03-12T05:04:33.584Z,97938.81
2024-03-12T05:07:00.200Z,97947.28
2024-03-12T05:09:26.769Z,97944.72
2024-03-12T05:11:53.951Z,97951.47
2024-03-12T05:14:20.799Z,97954.84
2024-03-12T05:16:47.523Z,97958.22
2024-03-12T05:19:14.058Z,97959.91
2024-03-12T05:21:40.627Z,97969.19
2024-03-12T05:24:07.398Z,97966.72
2024-03-12T05:26:37.413Z,97975.16
2024-03-12T05:29:03.909Z,97979.38
2024-03-12T05:31:39.458Z,97976.84
2024-03-12T05:34:28.594Z,97975.16
2024-03-12T05:37:04.883Z,97974.34
2024-03-12T05:40:01.560Z,97981.94
2024-03-12T05:42:46.934Z,97973.47
2024-03-12T05:45:32.164Z,97980.25
2024-03-12T05:48:11.189Z,97981.97
2024-03-12T05:50:39.897Z,97981.16
2024-03-12T05:53:06.433Z,97986.22
2024-03-12T05:55:33.654Z,97980.31
2024-03-12T05:58:00.371Z,97979.47
2024-03-12T06:00:27.168Z,97983.75
2024-03-12T06:02:54.857Z,97982.91
2024-03-12T06:05:21.750Z,97988.84
2024-03-12T06:07:53.474Z,97985.47
2024-03-12T06:10:20.162Z,97979.56
2024-03-12T06:12:46.750Z,97988.88
2024-03-12T06:15:13.306Z,97988.00
2024-03-12T06:17:39.820Z,97995.59
2024-03-12T06:20:10.153Z,98004.91
2024-03-12T06:22:38.029Z,98007.47
2024-03-12T06:25:05.087Z,98007.41
2024-03-12T06:27:33.502Z,98009.09
2024-03-12T06:30:00.100Z,98005.53
2024-03-12T06:32:32.318Z,98005.19
2024-03-12T06:34:59.360Z,98015.72
2024-03-12T06:37:31.803Z,98014.31
2024-03-12T06:40:00.055Z,98021.81
2024-03-12T06:42:27.630Z,98015.63
2024-03-12T06:44:54.484Z,98022.44
2024-03-12T06:47:20.969Z,98028.38
2024-03-12T06:49:48.847Z,98033.03
2024-03-12T06:52:18.951Z,98029.72
2024-03-12T06:54:45.550Z,98030.38
2024-03-12T06:57:12.345Z,98032.16
2024-03-12T06:59:38.907Z,98033.31
2024-03-12T07:02:06.847Z,98031.59
2024-03-12T07:04:36.211Z,98033.41
2024-03-12T07:07:06.974Z,98034.81
2024-03-12T07:09:38.696Z,98034.72
2024-03-12T07:12:06.948Z,98034.69
2024-03-12T07:14:41.515Z,98037.84
2024-03-12T07:17:09.195Z,98042.19
2024-03-12T07:19:36.115Z,98045.53
2024-03-12T07:22:02.682Z,98045.50
2024-03-12T07:24:30.192Z,98043.63
2024-03-12T07:26:57.066Z,98048.06
2024-03-12T07:29:24.663Z,98046.41
2024-03-12T07:31:53.062Z,98054.91
2024-03-12T07:34:19.664Z,98049.66
2024-03-12T07:36:47.118Z,98056.28
2024-03-12T07:39:25.822Z,98053.16
2024-03-12T07:41:56.389Z,98056.28
2024-03-12T07:44:23.630Z,98062.38
2024-03-12T07:46:50.418Z,98063.38
2024-03-12T07:49:22.603Z,98059.09
2024-03-12T07:51:52.711Z,98061.78
2024-03-12T07:54:20.121Z,98069.44
2024-03-12T07:56:49.719Z,98065.13
2024-03-12T07:59:17.590Z,98073.84
2024-03-12T08:01:46.079Z,98070.31
2024-03-12T08:04:14.237Z,98071.09
2024-03-12T08:06:41.625Z,98074.50
2024-03-12T08:09:08.860Z,98079.56
2024-03-12T08:11:35.843Z,98077.91
2024-03-12T08:14:02.336Z,98073.50
2024-03-12T08:16:30.216Z,98080.97
2024-03-12T08:18:59.725Z,98085.16
2024-03-12T08:21:29.463Z,98080.97
2024-03-12T08:23:59.452Z,98084.22
2024-03-12T08:26:29.444Z,98085.00
2024-03-12T08:28:58.764Z,98085.81
2024-03-12T08:31:32.806Z,98090.91
2024-03-12T08:34:04.316Z,98091.53
2024-03-12T08:36:30.977Z,98092.34
2024-03-12T08:38:59.311Z,98104.34
2024-03-12T08:41:27.115Z,98102.56
2024-03-12T08:43:53.711Z,98106.84
2024-03-12T08:46:20.883Z,98107.56
2024-03-12T08:48:47.461Z,98112.84
2024-03-12T08:51:16.921Z,98115.41
2024-03-12T08:53:43.392Z,98114.47
2024-03-12T08:56:10.533Z,98114.25
2024-03-12T08:58:37.867Z,98117.59
2024-03-12T09:01:05.890Z,98124.25
2024-03-12T09:03:32.811Z,98121.69
2024-03-12T09:06:00.413Z,98118.50
2024-03-12T09:08:26.898Z,98119.25
2024-03-12T09:10:54.253Z,98124.34
2024-03-12T09:13:21.055Z,98120.69
2024-03-12T09:15:49.856Z,98129.09
2024-03-12T09:18:23.589Z,98128.34
2024-03-12T09:20:52.997Z,98126.50
2024-03-12T09:23:20.191Z,98129.91
2024-03-12T09:25:47.045Z,98128.34
2024-03-12T09:28:17.847Z,98129.19
2024-03-12T09:30:44.607Z,98137.47
2024-03-12T09:33:12.241Z,98141.56
2024-03-12T09:35:39.258Z,98135.44
2024-03-12T09:38:07.603Z,98134.53
2024-03-12T09:40:34.094Z,98142.78
2024-03-12T09:43:01.739Z,98147.13
2024-03-12T09:45:28.546Z,98145.31
2024-03-12T09:47:55.503Z,98142.63
2024-03-12T09:50:24.373Z,98137.50
2024-03-12T09:52:51.231Z,98146.84
2024-03-12T09:55:19.476Z,98146.72
2024-03-12T09:57:46.354Z,98148.50
2024-03-12T10:00:16.969Z,98147.78
2024-03-12T10:02:43.578Z,98154.88
2024-03-12T10:05:11.366Z,98154.75
2024-03-12T10:07:37.897Z,98162.19
2024-03-12T10:10:08.380Z,98155.38
2024-03-12T10:12:36.709Z,98158.00
2024-03-12T10:15:08.889Z,98161.22
2024-03-12T10:17:36.091Z,98154.75
2024-03-12T10:20:16.786Z,98161.41
2024-03-12T10:22:45.248Z,98152.66
2024-03-12T10:25:12.143Z,98163.56
2024-03-12T10:28:03.769Z,98163.53
2024-03-12T10:30:35.057Z,98165.06
2024-03-12T10:33:18.110Z,98166.06
2024-03-12T10:35:46.610Z,98171.97
2024-03-12T10:38:15.537Z,98171.09
2024-03-12T10:40:42.704Z,98165.88
2024-03-12T10:43:09.839Z,98173.56
2024-03-12T10:45:37.210Z,98177.94
2024-03-12T10:48:07.349Z,98171.25
2024-03-12T10:50:36.442Z,98175.50
2024-03-12T10:53:03.244Z,98176.28
2024-03-12T10:55:34.282Z,98180.81
2024-03-12T10:58:03.784Z,98183.09
2024-03-12T11:00:31.532Z,98171.16
2024-03-12T11:02:58.738Z,98175.09
2024-03-12T11:05:28.237Z,98169.47
2024-03-12T11:08:04.030Z,98176.19
2024-03-12T11:10:34.036Z,98166.47
2024-03-12T11:13:02.141Z,98176.34
2024-03-12T11:15:29.286Z,98177.56
2024-03-12T11:17:56.418Z,98175.75
2024-03-12T11:20:28.136Z,98170.09
2024-03-12T11:23:01.137Z,98172.22
2024-03-12T11:25:40.126Z,98173.59
2024-03-12T11:28:24.829Z,98165.63
2024-03-12T11:31:06.253Z,98173.84
2024-03-12T11:33:38.587Z,98174.47
2024-03-12T11:36:26.108Z,98177.22
2024-03-12T11:38:53.858Z,98174.38
2024-03-12T11:41:21.118Z,98168.63
2024-03-12T11:43:48.990Z,98168.28
2024-03-12T11:46:21.544Z,98167.31
2024-03-12T11:48:49.571Z,98164.03
2024-03-12T11:51:16.819Z,98170.88
2024-03-12T11:53:48.729Z,98163.63
2024-03-12T11:56:25.085Z,98164.59
2024-03-12T11:59:02.485Z,98165.75
2024-03-12T12:01:34.202Z,98167.28
2024-03-12T12:04:05.471Z,98167.13
2024-03-12T12:06:35.745Z,98171.81
2024-03-12T12:09:07.594Z,98166.13
2024-03-12T12:11:37.906Z,98157.81
2024-03-12T12:14:07.008Z,98168.84
2024-03-12T12:16:33.620Z,98164.59
2024-03-12T12:19:09.267Z,98156.91
2024-03-12T12:21:36.538Z,98157.91
2024-03-12T12:24:04.802Z,98153.16
2024-03-12T12:26:34.498Z,98160.72
2024-03-12T12:29:04.989Z,98159.91
2024-03-12T12:31:37.896Z,98156.84
2024-03-12T12:34:06.695Z,98156.41
2024-03-12T12:36:39.789Z,98155.38
2024-03-12T12:39:11.518Z,98152.19
2024-03-12T12:41:47.093Z,98154.56
2024-03-12T12:44:18.378Z,98160.22
2024-03-12T12:46:47.103Z,98161.31
2024-03-12T12:49:15.448Z,98145.06
2024-03-12T12:51:42.825Z,98152.81
2024-03-12T12:54:10.698Z,98152.06
2024-03-12T12:56:45.812Z,98156.41
2024-03-12T12:59:13.721Z,98159.28
2024-03-12T13:01:41.173Z,98154.19
2024-03-12T13:04:25.530Z,98157.56
2024-03-12T13:06:56.065Z,98153.22
2024-03-12T13:09:35.161Z,98156.78
2024-03-12T13:12:03.428Z,98154.16
2024-03-12T13:14:30.834Z,98164.31
2024-03-12T13:16:59.713Z,98158.72
2024-03-12T13:19:27.612Z,98153.19
2024-03-12T13:21:58.994Z,98156.31
2024-03-12T13:24:25.860Z,98153.66
2024-03-12T13:26:52.555Z,98167.72
2024-03-12T13:29:19.067Z,98164.34
2024-03-12T13:31:46.781Z,98165.97
2024-03-12T13:34:14.034Z,98163.84
2024-03-12T13:36:40.603Z,98156.72
2024-03-12T13:39:07.643Z,98165.13
2024-03-12T13:41:34.467Z,98154.59
2024-03-12T13:44:00.983Z,98157.03
2024-03-12T13:46:27.639Z,98155.03
2024-03-12T13:49:11.955Z,98155.41
2024-03-12T13:51:38.853Z,98162.81
2024-03-12T13:54:09.169Z,98162.69
2024-03-12T13:56:39.038Z,98169.78
2024-03-12T13:59:05.969Z,98171.97
2024-03-12T14:01:33.648Z,98172.97
2024-03-12T14:04:00.498Z,98167.41
2024-03-12T14:06:27.835Z,98167.09
2024-03-12T14:08:54.307Z,98173.72
2024-03-12T14:11:20.848Z,98169.78
2024-03-12T14:13:50.706Z,98167.56
2024-03-12T14:16:18.909Z,98168.09
2024-03-12T14:18:50.504Z,98166.84
2024-03-12T14:21:17.511Z,98166.09
2024-03-12T14:23:44.002Z,98170.88
2024-03-12T14:26:10.643Z,98174.56
2024-03-12T14:28:37.376Z,98173.22
2024-03-12T14:31:04.218Z,98171.44
2024-03-12T14:33:30.850Z,98175.66
2024-03-12T14:35:57.394Z,98173.97
2024-03-12T14:38:24.116Z,98185.72
2024-03-12T14:40:50.885Z,98173.72
2024-03-12T14:43:17.570Z,98184.19
2024-03-12T14:45:47.285Z,98177.53
2024-03-12T14:48:14.266Z,98177.97
2024-03-12T14:50:41.002Z,98185.97
2024-03-12T14:53:09.239Z,98183.81
2024-03-12T14:55:35.975Z,98187.78
2024-03-12T14:58:02.834Z,98179.78
2024-03-12T15:00:29.812Z,98183.16
2024-03-12T15:02:56.947Z,98185.63
2024-03-12T15:05:23.487Z,98185.03
2024-03-12T15:07:49.962Z,98186.06
2024-03-12T15:10:16.864Z,98183.34
2024-03-12T15:12:44.672Z,98184.03
2024-03-12T15:15:13.112Z,98184.31
2024-03-12T15:17:40.764Z,98177.66
2024-03-12T15:20:17.054Z,98181.06
2024-03-12T15:22:44.622Z,98184.34
2024-03-12T15:25:16.124Z,98181.06
2024-03-12T15:27:43.367Z,98184.41
2024-03-12T15:30:10.933Z,98183.88
2024-03-12T15:32:39.531Z,98183.22
2024-03-12T15:35:07.157Z,98181.56
2024-03-12T15:37:33.980Z,98179.91
2024-03-12T15:40:01.382Z,98184.06
2024-03-12T15:42:29.340Z,98180.81
2024-03-12T15:44:56.788Z,98177.16
2024-03-12T15:47:24.044Z,98178.09
2024-03-12T15:49:51.400Z,98180.44
2024-03-12T15:52:18.683Z,98181.56
2024-03-12T15:54:48.788Z,98187.22
2024-03-12T15:57:18.216Z,98185.31
2024-03-12T15:59:45.231Z,98191.31
2024-03-12T16:02:13.779Z,98187.84
2024-03-12T16:04:40.595Z,98199.59
2024-03-12T16:07:08.005Z,98190.06
2024-03-12T16:09:35.983Z,98196.09
2024-03-12T16:12:02.618Z,98201.88
2024-03-12T16:14:29.243Z,98201.75
2024-03-12T16:16:55.889Z,98203.66
2024-03-12T16:19:23.159Z,98201.81
2024-03-12T16:21:50.771Z,98202.88
2024-03-12T16:24:17.329Z,98199.31
2024-03-12T16:26:44.242Z,98201.34
2024-03-12T16:29:10.829Z,98203.94
2024-03-12T16:31:37.359Z,98204.78
2024-03-12T16:34:05.780Z,98206.94
2024-03-12T16:36:33.728Z,98202.47
2024-03-12T16:39:01.736Z,98212.81
2024-03-12T16:41:28.203Z,98206.84
2024-03-12T16:43:55.766Z,98209.34
2024-03-12T16:46:22.275Z,98206.88
2024-03-12T16:48:48.820Z,98208.53
2024-03-12T16:51:16.285Z,98211.47
2024-03-12T16:53:42.866Z,98217.38
2024-03-12T16:56:10.496Z,98219.00
2024-03-12T16:58:37.306Z,98218.41
2024-03-12T17:01:04.237Z,98219.53
2024-03-12T17:03:31.065Z,98228.28
2024-03-12T17:05:58.851Z,98227.44
2024-03-12T17:08:25.589Z,98231.06
2024-03-12T17:10:52.415Z,98231.09
2024-03-12T17:13:19.246Z,98237.03
2024-03-12T17:15:47.175Z,98233.03
2024-03-12T17:18:14.098Z,98238.94
2024-03-12T17:20:40.817Z,98235.56
2024-03-12T17:23:08.169Z,98238.09
2024-03-12T17:25:35.433Z,98242.63
2024-03-12T17:28:05.025Z,98243.41
2024-03-12T17:30:31.931Z,98246.84
2024-03-12T17:32:58.609Z,98249.59
2024-03-12T17:35:25.435Z,98249.59
2024-03-12T17:37:57.036Z,98254.56
2024-03-12T17:40:25.352Z,98257.22
2024-03-12T17:42:52.304Z,98256.28
2024-03-12T17:45:19.054Z,98259.13
2024-03-12T17:47:53.650Z,98264.25
2024-03-12T17:50:22.546Z,98270.31
2024-03-12T17:52:51.243Z,98277.19
2024-03-12T17:55:18.815Z,98281.44
2024-03-12T17:57:47.265Z,98276.38
2024-03-12T18:00:15.652Z,98271.53
2024-03-12T18:02:44.938Z,98280.03
2024-03-12T18:05:12.899Z,98278.22
2024-03-12T18:07:43.196Z,98282.50
2024-03-12T18:10:17.050Z,98274.94
2024-03-12T18:12:45.086Z,98287.81
2024-03-12T18:15:12.819Z,98291.16
2024-03-12T18:17:40.490Z,98285.41
2024-03-12T18:20:13.204Z,98290.38
2024-03-12T18:22:41.133Z,98285.31
2024-03-12T18:25:10.970Z,98293.97
2024-03-12T18:27:41.277Z,98296.72
2024-03-12T18:30:09.611Z,98297.59
2024-03-12T18:32:36.334Z,98287.25
2024-03-12T18:35:02.863Z,98294.16
2024-03-12T18:37:29.425Z,98304.41
2024-03-12T18:39:56.871Z,98298.44
2024-03-12T18:42:23.466Z,98302.56
2024-03-12T18:44:50.000Z,98301.84
2024-03-12T18:47:17.337Z,98306.91
2024-03-12T18:49:45.186Z,98305.31
2024-03-12T18:52:12.139Z,98296.78
2024-03-12T18:54:39.135Z,98302.66
2024-03-12T18:57:06.267Z,98300.38
2024-03-12T18:59:33.101Z,98307.16
2024-03-12T19:02:08.050Z,98304.63
2024-03-12T19:04:36.300Z,98309.78
2024-03-12T19:07:03.055Z,98309.81
2024-03-12T19:09:32.378Z,98310.69
2024-03-12T19:12:01.753Z,98311.53
2024-03-12T19:14:29.232Z,98312.44
2024-03-12T19:16:56.032Z,98315.16
2024-03-12T19:19:29.834Z,98319.41
2024-03-12T19:21:57.379Z,98314.97
2024-03-12T19:24:23.970Z,98322.69
2024-03-12T19:26:50.568Z,98319.41
2024-03-12T19:29:17.930Z,98324.56
2024-03-12T19:31:44.812Z,98327.19
2024-03-12T19:34:16.793Z,98324.63
2024-03-12T19:36:45.517Z,98325.53
2024-03-12T19:39:13.217Z,98319.59
2024-03-12T19:41:46.156Z,98326.44
2024-03-12T19:44:13.231Z,98329.03
2024-03-12T19:46:43.513Z,98321.31
2024-03-12T19:49:10.515Z,98328.16
2024-03-12T19:51:41.851Z,98324.75
2024-03-12T19:54:09.435Z,98330.69
2024-03-12T19:56:36.043Z,98325.53
2024-03-12T19:59:02.515Z,98329.00
2024-03-12T20:01:29.685Z,98330.72
2024-03-12T20:03:56.959Z,98335.00
2024-03-12T20:06:23.538Z,98334.22
2024-03-12T20:08:52.095Z,98334.25
2024-03-12T20:11:18.825Z,98342.81
2024-03-12T20:13:45.544Z,98343.72
2024-03-12T20:16:15.402Z,98342.88
2024-03-12T20:18:44.073Z,98348.84
2024-03-12T20:21:10.572Z,98347.13
2024-03-12T20:23:37.812Z,98353.91
2024-03-12T20:26:06.713Z,98347.00
2024-03-12T20:28:34.187Z,98347.00
2024-03-12T20:31:00.808Z,98356.41
2024-03-12T20:33:28.381Z,98349.56
2024-03-12T20:35:58.729Z,98355.53
2024-03-12T20:38:25.185Z,98358.09
2024-03-12T20:40:51.647Z,98359.78
2024-03-12T20:43:18.266Z,98358.88
2024-03-12T20:45:46.436Z,98352.88
2024-03-12T20:48:14.728Z,98360.56
2024-03-12T20:50:41.598Z,98366.59
2024-03-12T20:53:08.325Z,98361.47
2024-03-12T20:55:34.870Z,98358.94
2024-03-12T20:58:01.332Z,98358.91
2024-03-12T21:00:29.808Z,98357.19
2024-03-12T21:02:56.552Z,98353.81
2024-03-12T21:05:23.236Z,98357.19
2024-03-12T21:07:51.604Z,98359.72
2024-03-12T21:10:18.402Z,98351.19
2024-03-12T21:12:49.481Z,98351.16
2024-03-12T21:15:17.487Z,98352.06
2024-03-12T21:17:44.573Z,98347.06
2024-03-12T21:20:29.483Z,98347.94
2024-03-12T21:22:56.225Z,98348.03
2024-03-12T21:25:22.845Z,98340.47
2024-03-12T21:27:50.070Z,98340.50
2024-03-12T21:30:19.012Z,98344.72
2024-03-12T21:32:46.452Z,98339.53
2024-03-12T21:35:13.351Z,98342.88
2024-03-12T21:37:40.251Z,98341.22
2024-03-12T21:40:12.581Z,98338.66
2024-03-12T21:42:39.883Z,98338.69
2024-03-12T21:45:16.022Z,98338.69
2024-03-12T21:47:43.798Z,98333.63
2024-03-12T21:50:14.906Z,98339.63
2024-03-12T21:52:41.858Z,98335.31
2024-03-12T21:55:09.974Z,98330.22
2024-03-12T21:57:39.936Z,98334.47
2024-03-12T22:00:19.540Z,98328.53
2024-03-12T22:02:47.186Z,98332.81
2024-03-12T22:05:15.832Z,98331.00
2024-03-12T22:07:44.569Z,98331.03
2024-03-12T22:10:14.346Z,98332.69
2024-03-12T22:12:41.801Z,98325.84
2024-03-12T22:15:12.167Z,98327.59
2024-03-12T22:17:38.685Z,98324.25
2024-03-12T22:20:06.660Z,98327.66
2024-03-12T22:22:34.025Z,98317.41
2024-03-12T22:25:00.824Z,98320.81
2024-03-12T22:27:29.167Z,98323.34
2024-03-12T22:29:55.810Z,98323.34
2024-03-12T22:32:27.034Z,98318.19
2024-03-12T22:34:55.397Z,98322.38
2024-03-12T22:37:22.056Z,98313.09
2024-03-12T22:39:48.817Z,98306.22
2024-03-12T22:42:16.230Z,98311.44
2024-03-12T22:44:42.957Z,98309.75
2024-03-12T22:47:11.616Z,98317.38
2024-03-12T22:49:38.425Z,98308.91
2024-03-12T22:52:06.360Z,98311.50
2024-03-12T22:54:33.809Z,98308.97
2024-03-12T22:57:00.919Z,98314.94
2024-03-12T22:59:28.573Z,98313.22
2024-03-12T23:01:57.388Z,98310.72
2024-03-12T23:04:25.256Z,98308.09
2024-03-12T23:06:52.269Z,98308.91
2024-03-12T23:09:19.009Z,98311.44
2024-03-12T23:11:45.468Z,98316.56
2024-03-12T23:14:11.954Z,98310.56
2024-03-12T23:16:38.431Z,98306.28
2024-03-12T23:19:04.944Z,98309.69
2024-03-12T23:21:31.485Z,98308.91
2024-03-12T23:23:57.956Z,98307.16
2024-03-12T23:26:24.629Z,98303.81
2024-03-12T23:28:51.120Z,98308.97
2024-03-12T23:31:18.165Z,98308.94
2024-03-12T23:33:45.357Z,98310.56
2024-03-12T23:36:12.542Z,98313.97
2024-03-12T23:38:39.726Z,98308.88
2024-03-12T23:41:07.922Z,98309.75
2024-03-12T23:43:35.051Z,98303.78
2024-03-12T23:46:01.656Z,98308.91
2024-03-12T23:48:28.113Z,98305.50
2024-03-12T23:50:55.004Z,98303.03
2024-03-12T23:53:21.696Z,98306.47
2024-03-12T23:55:48.321Z,98306.47
2024-03-12T23:58:16.366Z,98300.53
